KIOB

Mount Sterling-Montgomery County Airport

Mount Sterling, Kentucky, USA
METAR KIOB 222035Z AUTO 25008KT 10SM CLR 17/00 A3018 RMK AO2
Observed Flight Rules
Oct-22 @ 20:35 UTC (14 minutes ago) Visual Flight Rules
Wind Visibility Clouds
250° at 8 knots 10 miles
  • Clear skies
Temperatures Readings
Current 17°C / 63°F
Dewpoint 0°C / 32°F
Humidity 32%
Altimeter 30.18" Hg
Pressure 1022 hPa
Elevation 311
METAR KIOB 222035Z AUTO 25008KT 10SM CLR 17/00 A3018 RMK AO2
Observed Flight Rules
Oct-22 @ 20:35 UTC
(14 minutes ago)
VFR
Wind Visibility
250° at 8 knots 10 miles
Clouds
  • Clear skies
Temperature Dewpoint
17°C / 63°F 0°C / 32°F
Humidity Altimeter Pressure
32% 30.18" Hg 1022 hPa